Time;durP1;ratioP1;P1;durP2;ratioP2;P2;SDS_P1;SDS_P2;PMS_P1;PMS_P2;Temp;Humidity;BMP_temperature;BMP_pressure;BME280_temperature;BME280_humidity;BME280_pressure;Samples;Min_cycle;Max_cycle;Signal;HPM_P1;HPM_P2
2023/01/25 00:01:54;;;;;;;2.67;1.40;;;2.80;99.90;;;;;;5051631;28;20036;-74
2023/01/25 00:04:21;;;;;;;1.88;1.52;;;3.00;99.90;;;;;;5051186;28;20028;-74
2023/01/25 00:06:47;;;;;;;3.22;1.40;;;3.10;99.90;;;;;;5050716;28;20120;-74
2023/01/25 00:09:13;;;;;;;0.30;0.30;;;3.20;99.90;;;;;;5052128;28;20037;-74
2023/01/25 00:11:39;;;;;;;2.72;2.53;;;3.00;99.90;;;;;;5050999;28;20037;-75
2023/01/25 00:14:05;;;;;;;6.32;3.10;;;3.30;99.90;;;;;;5052151;28;20028;-76
2023/01/25 00:16:32;;;;;;;4.75;3.30;;;3.50;99.90;;;;;;5051407;28;20059;-76
2023/01/25 00:18:57;;;;;;;2.42;2.05;;;3.40;99.90;;;;;;5050991;28;20487;-75
2023/01/25 00:21:26;;;;;;;1.95;1.85;;;3.40;99.90;;;;;;5051902;28;20060;-75
2023/01/25 00:23:53;;;;;;;4.35;3.65;;;3.40;99.90;;;;;;5053800;28;20111;-75
2023/01/25 00:26:18;;;;;;;8.50;2.63;;;3.10;99.90;;;;;;5054234;28;20063;-76
2023/01/25 00:28:52;;;;;;;0.90;0.90;;;3.10;99.90;;;;;;5055706;28;20052;-76
2023/01/25 00:31:48;;;;;;;1.52;1.42;;;3.20;99.90;;;;;;5055102;28;20041;-76
2023/01/25 00:34:23;;;;;;;1.30;1.30;;;3.20;99.90;;;;;;5054163;28;20033;-76
2023/01/25 00:36:57;;;;;;;0.10;0.10;;;3.20;99.90;;;;;;5054077;28;20025;-75
2023/01/25 00:39:25;;;;;;;1.00;1.00;;;3.30;99.90;;;;;;5055315;28;20033;-75
2023/01/25 00:41:51;;;;;;;0.93;0.93;;;3.20;99.90;;;;;;5055379;28;20037;-75
2023/01/25 00:44:17;;;;;;;17.15;6.28;;;3.20;99.90;;;;;;5055275;28;20497;-74
2023/01/25 00:46:43;;;;;;;13.00;4.80;;;3.20;99.90;;;;;;5053506;28;20044;-74
2023/01/25 00:49:21;;;;;;;12.88;5.72;;;3.10;99.90;;;;;;5054058;28;20021;-75
2023/01/25 00:51:48;;;;;;;31.20;9.70;;;2.60;99.90;;;;;;5053767;28;20064;-74
2023/01/25 00:54:14;;;;;;;10.45;5.88;;;2.60;99.90;;;;;;5053985;28;20358;-75
2023/01/25 00:56:39;;;;;;;13.90;6.93;;;2.70;99.90;;;;;;5053788;28;20067;-76
2023/01/25 00:59:05;;;;;;;6.00;5.20;;;2.60;99.90;;;;;;5054026;28;20376;-76
2023/01/25 01:01:31;;;;;;;0.20;0.20;;;2.60;99.90;;;;;;5054422;28;20445;-76
2023/01/25 01:03:57;;;;;;;9.60;1.95;;;2.70;99.90;;;;;;5053764;28;20040;-76
2023/01/25 01:06:23;;;;;;;0.57;0.57;;;2.80;99.90;;;;;;5053654;28;20110;-76
2023/01/25 01:08:51;;;;;;;3.67;2.20;;;2.80;99.90;;;;;;5053643;28;20508;-75
2023/01/25 01:11:17;;;;;;;0.08;0.08;;;3.00;99.90;;;;;;5053488;28;20024;-76
2023/01/25 01:13:43;;;;;;;3.70;2.45;;;3.20;99.90;;;;;;5054890;28;20075;-74
2023/01/25 01:16:11;;;;;;;3.03;2.70;;;3.30;99.90;;;;;;5053023;28;20033;-74
2023/01/25 01:18:40;;;;;;;3.25;0.77;;;3.40;99.90;;;;;;5054914;28;20033;-74
2023/01/25 01:21:07;;;;;;;4.07;3.78;;;3.50;99.90;;;;;;5054262;28;20036;-74
2023/01/25 01:23:34;;;;;;;1.85;1.75;;;3.40;99.90;;;;;;5054583;28;20024;-74
2023/01/25 01:26:01;;;;;;;7.07;3.05;;;3.30;99.90;;;;;;5054388;28;20071;-74
2023/01/25 01:28:31;;;;;;;2.58;2.38;;;3.30;99.90;;;;;;5051748;28;20183;-73
2023/01/25 01:31:10;;;;;;;18.20;6.05;;;3.40;99.90;;;;;;5053173;28;20478;-74
2023/01/25 01:33:38;;;;;;;6.72;2.60;;;3.30;99.90;;;;;;5053663;28;20053;-74
2023/01/25 01:36:13;;;;;;;6.65;4.82;;;2.80;99.90;;;;;;5052703;28;20063;-74
2023/01/25 01:38:38;;;;;;;13.15;6.97;;;2.70;99.90;;;;;;5054110;28;20052;-74
2023/01/25 01:41:04;;;;;;;10.45;4.32;;;2.50;99.90;;;;;;5052898;28;20033;-74
2023/01/25 01:43:30;;;;;;;0.70;0.68;;;2.50;99.90;;;;;;5053926;28;20047;-73
2023/01/25 01:46:01;;;;;;;6.50;1.75;;;2.60;99.90;;;;;;5052826;28;20025;-75
2023/01/25 01:48:49;;;;;;;10.18;6.53;;;2.60;99.90;;;;;;5052888;28;20021;-75
2023/01/25 01:51:46;;;;;;;15.02;8.15;;;2.80;99.90;;;;;;5052877;28;20469;-74
2023/01/25 01:54:34;;;;;;;4.20;3.83;;;2.70;99.90;;;;;;5042444;28;20025;-76
2023/01/25 01:57:22;;;;;;;2.92;2.67;;;2.80;99.90;;;;;;5052750;28;20043;-76
2023/01/25 01:59:55;;;;;;;3.97;2.63;;;3.00;99.90;;;;;;5054632;28;20440;-74
2023/01/25 02:02:24;;;;;;;1.40;1.30;;;3.30;99.90;;;;;;5052339;28;20091;-74
2023/01/25 02:04:53;;;;;;;2.38;2.17;;;3.30;99.90;;;;;;5053987;28;20079;-74
2023/01/25 02:07:29;;;;;;;6.63;2.15;;;3.30;99.90;;;;;;5052426;28;20060;-74
2023/01/25 02:09:56;;;;;;;2.10;0.98;;;3.30;99.90;;;;;;5052581;28;20028;-74
2023/01/25 02:12:22;;;;;;;0.85;0.85;;;3.40;99.90;;;;;;5052050;28;20445;-74
2023/01/25 02:14:50;;;;;;;0.10;0.10;;;3.40;99.90;;;;;;5053757;28;20039;-74
2023/01/25 02:17:25;;;;;;;0.10;0.10;;;3.50;99.90;;;;;;5052219;28;20485;-74
2023/01/25 02:20:05;;;;;;;7.53;5.38;;;3.40;99.90;;;;;;5053810;28;20411;-74
2023/01/25 02:23:00;;;;;;;1.50;1.23;;;3.10;99.90;;;;;;5052085;28;20047;-74
2023/01/25 02:25:27;;;;;;;2.50;2.25;;;3.10;99.90;;;;;;5032929;28;20470;-74
2023/01/25 02:28:15;;;;;;;2.20;1.45;;;3.10;99.90;;;;;;5051565;28;20499;-74
2023/01/25 02:30:42;;;;;;;0.10;0.10;;;3.10;99.90;;;;;;5052136;28;20025;-74
2023/01/25 02:33:09;;;;;;;0.10;0.10;;;3.20;99.90;;;;;;5052043;28;20029;-74
2023/01/25 02:35:56;;;;;;;1.92;1.83;;;3.30;99.90;;;;;;5052103;28;20539;-74
2023/01/25 02:38:22;;;;;;;1.85;1.75;;;3.30;99.90;;;;;;5051719;28;20063;-74
2023/01/25 02:40:56;;;;;;;0.10;0.10;;;3.20;99.90;;;;;;5051627;28;20056;-74
2023/01/25 02:43:26;;;;;;;4.32;1.55;;;3.20;99.90;;;;;;5051737;28;20125;-74
2023/01/25 02:46:00;;;;;;;2.72;1.17;;;3.30;99.90;;;;;;5051721;28;20021;-74
2023/01/25 02:48:26;;;;;;;8.13;5.13;;;3.30;99.90;;;;;;5051517;28;20017;-73
2023/01/25 02:50:52;;;;;;;0.10;0.10;;;3.30;99.90;;;;;;5051812;28;20029;-74
2023/01/25 02:53:17;;;;;;;0.10;0.10;;;3.20;99.90;;;;;;5051452;28;20036;-74
2023/01/25 02:55:44;;;;;;;0.73;0.73;;;3.30;99.90;;;;;;5052694;28;20040;-74
2023/01/25 02:58:10;;;;;;;2.80;2.20;;;3.50;99.90;;;;;;5051665;28;20032;-74
2023/01/25 03:00:36;;;;;;;1.02;1.02;;;3.40;99.90;;;;;;5051509;28;20025;-74
2023/01/25 03:03:02;;;;;;;10.30;2.40;;;3.40;99.90;;;;;;5052728;28;20040;-74
2023/01/25 03:05:28;;;;;;;0.10;0.10;;;3.50;99.90;;;;;;5034827;28;20226;-74
2023/01/25 03:07:54;;;;;;;2.60;2.47;;;3.40;99.90;;;;;;5049772;28;20102;-74
2023/01/25 03:10:21;;;;;;;0.10;0.10;;;3.40;99.90;;;;;;5051101;28;20110;-74
2023/01/25 03:12:47;;;;;;;10.82;3.10;;;3.40;99.90;;;;;;5051232;28;20492;-74
2023/01/25 03:15:13;;;;;;;1.65;1.55;;;3.40;99.90;;;;;;5051379;28;20025;-74
2023/01/25 03:17:40;;;;;;;0.10;0.10;;;3.40;99.90;;;;;;5051304;28;20017;-75
2023/01/25 03:20:06;;;;;;;0.80;0.80;;;3.40;99.90;;;;;;5052791;28;20079;-74
2023/01/25 03:22:33;;;;;;;2.15;2.05;;;3.40;99.90;;;;;;5051126;28;20036;-75
2023/01/25 03:24:58;;;;;;;3.45;3.15;;;3.40;99.90;;;;;;5034490;28;20028;-76
2023/01/25 03:27:25;;;;;;;0.15;0.15;;;3.30;99.90;;;;;;5051139;28;20025;-74
2023/01/25 03:30:02;;;;;;;2.95;2.75;;;3.30;99.90;;;;;;5051267;28;20021;-76
2023/01/25 03:32:31;;;;;;;1.23;1.10;;;3.30;99.90;;;;;;5051030;28;20053;-76
2023/01/25 03:35:03;;;;;;;2.20;0.47;;;3.40;99.90;;;;;;5035534;28;20079;-75
2023/01/25 03:37:30;;;;;;;7.22;3.30;;;3.40;99.90;;;;;;5052319;28;20062;-75
2023/01/25 03:39:57;;;;;;;15.85;8.55;;;3.60;99.90;;;;;;5050921;28;20055;-76
2023/01/25 03:42:23;;;;;;;5.05;4.57;;;3.00;99.90;;;;;;5051136;28;20037;-76
2023/01/25 03:44:53;;;;;;;3.45;2.65;;;2.70;99.90;;;;;;5052055;28;20021;-75
2023/01/25 03:47:19;;;;;;;0.50;0.50;;;2.90;99.90;;;;;;5051029;28;20370;-75
2023/01/25 03:49:45;;;;;;;1.55;1.42;;;3.00;99.90;;;;;;5051062;28;20067;-76
2023/01/25 03:52:14;;;;;;;5.57;4.38;;;3.10;99.90;;;;;;5051205;28;20115;-75
2023/01/25 03:54:41;;;;;;;1.90;1.75;;;3.20;99.90;;;;;;5050516;28;20539;-76
2023/01/25 03:57:08;;;;;;;1.23;1.05;;;2.80;99.90;;;;;;5051546;28;20093;-75
2023/01/25 03:59:43;;;;;;;12.25;7.88;;;2.50;99.90;;;;;;5054709;28;20028;-74
2023/01/25 04:02:11;;;;;;;1.75;1.45;;;2.50;99.90;;;;;;5054857;28;20532;-76
2023/01/25 04:04:37;;;;;;;3.10;2.95;;;2.50;99.90;;;;;;5054515;28;20025;-75
2023/01/25 04:07:03;;;;;;;1.35;1.35;;;2.50;99.90;;;;;;5054484;28;20024;-75
2023/01/25 04:09:30;;;;;;;2.47;2.28;;;2.60;99.90;;;;;;5054601;28;20075;-75
2023/01/25 04:11:58;;;;;;;6.32;3.00;;;2.80;99.90;;;;;;5038296;28;20029;-74
2023/01/25 04:14:25;;;;;;;1.17;1.17;;;2.80;99.90;;;;;;5054637;28;20500;-75
2023/01/25 04:16:59;;;;;;;3.72;2.33;;;2.50;99.90;;;;;;5054444;28;20435;-75
2023/01/25 04:19:31;;;;;;;1.23;1.20;;;2.60;99.90;;;;;;5054776;28;20449;-75
2023/01/25 04:21:59;;;;;;;2.95;2.75;;;3.00;99.90;;;;;;5054369;28;20033;-75
2023/01/25 04:24:30;;;;;;;20.45;12.73;;;2.70;99.90;;;;;;5054093;28;20488;-76
2023/01/25 04:26:57;;;;;;;1.15;1.10;;;2.40;99.90;;;;;;5054445;28;20029;-76
2023/01/25 04:29:23;;;;;;;22.60;11.18;;;2.50;99.90;;;;;;5054264;28;20024;-75
2023/01/25 04:31:49;;;;;;;4.18;2.15;;;2.20;99.90;;;;;;5054434;28;20025;-75
2023/01/25 04:34:14;;;;;;;2.63;1.83;;;2.20;99.90;;;;;;5043465;28;20362;-74
2023/01/25 04:36:40;;;;;;;2.90;1.77;;;2.30;99.90;;;;;;5057387;28;20361;-74
2023/01/25 04:39:07;;;;;;;4.88;3.70;;;2.10;99.90;;;;;;5053690;28;20060;-75
2023/01/25 04:41:34;;;;;;;13.98;6.07;;;2.20;99.90;;;;;;5054303;28;20047;-75
2023/01/25 04:44:00;;;;;;;5.25;4.75;;;2.20;99.90;;;;;;5054128;28;20430;-75
2023/01/25 04:46:26;;;;;;;53.42;25.02;;;2.30;99.90;;;;;;5053823;28;20362;-76
2023/01/25 04:48:53;;;;;;;4.55;4.25;;;2.10;99.90;;;;;;5053992;28;20171;-75
2023/01/25 04:51:20;;;;;;;13.82;5.53;;;2.30;99.90;;;;;;5054710;28;20017;-73
2023/01/25 04:53:46;;;;;;;25.63;10.45;;;2.10;99.90;;;;;;5053941;28;20029;-74
2023/01/25 04:56:12;;;;;;;3.47;2.33;;;2.10;99.90;;;;;;5053683;28;20021;-74
2023/01/25 04:58:46;;;;;;;7.30;2.47;;;2.20;99.90;;;;;;5053824;28;20033;-74
2023/01/25 05:01:12;;;;;;;7.05;6.35;;;2.00;99.90;;;;;;5037054;28;20432;-74
2023/01/25 05:03:38;;;;;;;16.65;9.73;;;2.20;99.90;;;;;;5055054;28;20388;-74
2023/01/25 05:06:10;;;;;;;14.90;6.30;;;2.00;99.90;;;;;;5053092;28;20049;-74
2023/01/25 05:08:36;;;;;;;33.40;16.20;;;2.00;99.90;;;;;;5053593;28;20565;-73
2023/01/25 05:11:02;;;;;;;2.72;2.40;;;1.90;99.90;;;;;;5053427;28;20075;-74
2023/01/25 05:13:48;;;;;;;7.00;5.72;;;1.80;99.90;;;;;;5054662;28;20040;-73
2023/01/25 05:16:26;;;;;;;5.93;5.43;;;2.00;99.90;;;;;;5053314;28;20469;-73
2023/01/25 05:18:54;;;;;;;29.67;15.05;;;1.90;99.90;;;;;;5053092;28;20040;-74
2023/01/25 05:24:09;;;;;;;14.55;8.68;;;1.70;99.90;;;;;;5053182;28;20552;-73
2023/01/25 05:29:20;;;;;;;18.05;9.40;;;1.60;99.90;;;;;;5053111;28;20036;-74
2023/01/25 05:31:53;;;;;;;4.25;3.88;;;1.60;99.90;;;;;;5052989;28;20045;-73
2023/01/25 05:34:19;;;;;;;4.57;2.65;;;1.80;99.90;;;;;;5053156;28;20032;-73
2023/01/25 05:36:45;;;;;;;0.88;0.88;;;2.00;99.90;;;;;;5052606;28;20035;-75
2023/01/25 05:39:12;;;;;;;8.65;5.10;;;2.30;99.90;;;;;;5052892;28;20033;-74
2023/01/25 05:41:38;;;;;;;6.22;5.78;;;1.90;99.90;;;;;;5052716;28;20037;-75
2023/01/25 05:44:04;;;;;;;12.93;3.38;;;2.00;99.90;;;;;;5052919;28;20031;-75
2023/01/25 05:46:31;;;;;;;0.98;0.82;;;1.90;99.90;;;;;;5052766;28;20029;-76
2023/01/25 05:48:56;;;;;;;4.15;3.83;;;2.20;99.90;;;;;;5052696;28;20021;-76
2023/01/25 05:51:25;;;;;;;28.73;9.85;;;2.00;99.90;;;;;;5052433;28;20484;-75
2023/01/25 05:53:56;;;;;;;19.48;9.05;;;2.00;99.90;;;;;;5052899;28;20056;-75
2023/01/25 05:56:23;;;;;;;8.15;4.10;;;1.70;99.90;;;;;;5036039;28;20017;-75
2023/01/25 05:58:53;;;;;;;9.85;5.70;;;1.50;99.90;;;;;;5052655;28;20029;-75
2023/01/25 06:01:23;;;;;;;7.10;3.70;;;1.50;99.90;;;;;;5052491;28;20029;-76
2023/01/25 06:03:52;;;;;;;26.95;11.85;;;1.50;99.90;;;;;;5052482;28;20028;-75
2023/01/25 06:06:19;;;;;;;15.98;9.35;;;1.60;99.90;;;;;;5052228;28;20037;-75
2023/01/25 06:08:46;;;;;;;20.60;10.10;;;1.80;99.90;;;;;;5052456;28;20025;-75
2023/01/25 06:11:17;;;;;;;7.38;4.78;;;1.80;99.90;;;;;;5052389;28;20032;-75
2023/01/25 06:13:45;;;;;;;17.60;9.57;;;1.70;99.90;;;;;;5052562;28;20477;-75
2023/01/25 06:16:11;;;;;;;5.18;4.13;;;1.60;99.90;;;;;;5053531;28;20028;-75
2023/01/25 06:18:57;;;;;;;3.80;2.25;;;1.60;99.90;;;;;;5051813;28;20381;-74
2023/01/25 06:21:35;;;;;;;23.98;12.55;;;1.90;99.90;;;;;;5051551;28;20060;-75
2023/01/25 06:24:03;;;;;;;3.30;3.10;;;2.00;99.90;;;;;;5053304;28;20108;-75
2023/01/25 06:26:29;;;;;;;8.35;2.42;;;2.10;99.90;;;;;;5051870;28;20025;-76
2023/01/25 06:28:54;;;;;;;17.50;8.50;;;2.10;99.90;;;;;;5035441;28;20035;-75
2023/01/25 06:31:20;;;;;;;17.20;4.88;;;1.50;99.90;;;;;;5053755;28;20025;-74
2023/01/25 06:33:49;;;;;;;4.72;4.32;;;1.50;99.90;;;;;;5052672;28;20076;-74
2023/01/25 06:36:17;;;;;;;5.40;2.20;;;1.60;99.90;;;;;;5051434;28;20048;-74
2023/01/25 06:38:47;;;;;;;23.98;11.50;;;1.60;99.90;;;;;;5053266;28;20024;-75
2023/01/25 06:41:13;;;;;;;13.13;8.25;;;1.50;99.90;;;;;;5051710;28;20094;-75
2023/01/25 06:43:39;;;;;;;24.38;13.80;;;1.60;99.90;;;;;;5053172;28;20013;-75
2023/01/25 06:46:08;;;;;;;28.13;14.45;;;1.40;99.90;;;;;;5052804;28;20839;-74
2023/01/25 06:48:34;;;;;;;29.42;14.38;;;1.20;99.90;;;;;;5052676;28;20048;-75
2023/01/25 06:51:03;;;;;;;2.58;2.38;;;1.20;99.90;;;;;;5051626;28;20032;-74
2023/01/25 06:53:30;;;;;;;7.90;5.30;;;1.10;99.90;;;;;;5051625;28;20116;-75
2023/01/25 06:56:02;;;;;;;58.03;24.17;;;1.10;99.90;;;;;;5052894;28;20083;-75
2023/01/25 06:58:29;;;;;;;2.15;1.60;;;1.10;99.90;;;;;;5051263;28;20064;-75
2023/01/25 07:01:02;;;;;;;5.22;4.07;;;1.20;99.90;;;;;;5052836;28;20500;-76
2023/01/25 07:03:28;;;;;;;25.25;13.20;;;1.50;99.90;;;;;;5050901;28;20045;-75
2023/01/25 07:06:02;;;;;;;11.10;7.72;;;1.40;99.90;;;;;;5052607;28;20029;-74
2023/01/25 07:08:29;;;;;;;22.15;7.25;;;1.50;99.90;;;;;;5052724;28;20465;-73
2023/01/25 07:11:06;;;;;;;1.58;1.40;;;1.50;99.90;;;;;;5052991;28;20037;-74
2023/01/25 07:13:33;;;;;;;19.77;11.70;;;1.60;99.90;;;;;;5052595;28;20033;-76
2023/01/25 07:16:01;;;;;;;3.50;3.20;;;1.60;99.90;;;;;;5052385;28;20021;-73
2023/01/25 07:18:31;;;;;;;9.02;5.60;;;1.40;99.90;;;;;;5052137;28;20021;-76
2023/01/25 07:21:12;;;;;;;3.50;2.05;;;1.60;99.90;;;;;;5034692;28;20037;-74
2023/01/25 07:23:38;;;;;;;4.78;4.35;;;1.90;99.90;;;;;;5052397;28;20044;-74
2023/01/25 07:26:05;;;;;;;6.53;4.93;;;2.10;99.90;;;;;;5052203;28;20385;-74
2023/01/25 07:28:31;;;;;;;38.17;17.45;;;1.70;99.90;;;;;;5051959;28;20021;-73
2023/01/25 07:31:05;;;;;;;19.92;8.27;;;1.70;99.90;;;;;;5051957;28;20106;-72
2023/01/25 07:33:31;;;;;;;10.60;7.60;;;1.70;99.90;;;;;;5055387;28;20481;-72
2023/01/25 07:36:03;;;;;;;23.50;13.23;;;1.50;99.90;;;;;;5055009;28;20043;-73
2023/01/25 07:38:29;;;;;;;9.15;2.90;;;1.20;99.90;;;;;;5050361;28;20480;-73
2023/01/25 07:40:55;;;;;;;16.23;9.98;;;1.10;99.90;;;;;;5054382;28;20079;-72
2023/01/25 07:43:21;;;;;;;8.93;7.90;;;1.10;99.90;;;;;;5064095;28;20496;-73
2023/01/25 07:45:49;;;;;;;7.70;4.30;;;1.20;99.90;;;;;;5054238;28;20066;-73
2023/01/25 07:48:16;;;;;;;16.65;4.88;;;1.40;99.90;;;;;;5054690;28;20041;-73
2023/01/25 07:50:45;;;;;;;25.65;13.32;;;1.50;99.90;;;;;;5050111;28;20427;-72
2023/01/25 07:53:12;;;;;;;27.55;14.80;;;1.20;99.90;;;;;;5059942;28;20055;-73
2023/01/25 07:55:38;;;;;;;23.42;12.95;;;1.20;99.90;;;;;;5057790;28;20031;-72
2023/01/25 07:58:04;;;;;;;9.95;5.68;;;1.20;99.90;;;;;;5059718;28;20461;-73
2023/01/25 08:00:30;;;;;;;20.15;11.88;;;1.20;99.90;;;;;;5054855;28;20031;-74
2023/01/25 08:02:55;;;;;;;12.52;8.10;;;1.10;99.90;;;;;;5067093;28;20029;-74
2023/01/25 08:05:24;;;;;;;53.83;20.13;;;1.10;99.90;;;;;;5053067;28;20079;-75
2023/01/25 08:07:49;;;;;;;36.72;16.08;;;1.10;99.90;;;;;;5054215;28;20021;-72
2023/01/25 08:10:15;;;;;;;54.88;21.63;;;1.10;99.90;;;;;;5051969;28;20100;-73
2023/01/25 08:12:45;;;;;;;36.30;19.02;;;1.10;99.90;;;;;;5055388;28;20381;-73
2023/01/25 08:15:12;;;;;;;36.08;13.95;;;1.00;99.90;;;;;;5065608;28;20037;-73
2023/01/25 08:17:37;;;;;;;7.30;6.18;;;1.10;99.90;;;;;;5070570;28;20032;-73
2023/01/25 08:20:04;;;;;;;45.25;17.38;;;1.20;99.90;;;;;;5068832;28;20047;-73
2023/01/25 08:22:30;;;;;;;11.45;9.43;;;1.20;99.90;;;;;;5058895;28;20052;-73
2023/01/25 08:24:56;;;;;;;36.67;16.92;;;1.20;99.90;;;;;;5047713;28;20021;-74
2023/01/25 08:27:22;;;;;;;6.13;3.35;;;1.30;99.90;;;;;;5048646;28;20052;-73
2023/01/25 08:29:52;;;;;;;41.85;18.23;;;1.20;99.90;;;;;;5052456;28;20522;-73
2023/01/25 08:32:18;;;;;;;44.95;18.35;;;1.10;99.90;;;;;;5065389;28;20036;-72
2023/01/25 08:34:44;;;;;;;34.28;17.95;;;1.10;99.90;;;;;;5057208;28;20025;-73
2023/01/25 08:37:10;;;;;;;7.13;6.22;;;1.00;99.90;;;;;;5045334;28;20021;-73
2023/01/25 08:39:36;;;;;;;27.27;16.40;;;1.00;99.90;;;;;;5052873;28;20045;-73
2023/01/25 08:42:02;;;;;;;20.88;5.50;;;1.00;99.90;;;;;;5055147;28;20110;-73
2023/01/25 08:44:28;;;;;;;16.98;10.02;;;1.00;99.90;;;;;;5058612;28;20035;-72
2023/01/25 08:46:54;;;;;;;38.13;19.15;;;1.10;99.90;;;;;;5052430;28;20027;-73
2023/01/25 08:49:19;;;;;;;39.30;18.52;;;1.10;99.90;;;;;;5055822;28;20052;-74
2023/01/25 08:51:47;;;;;;;45.83;20.08;;;1.20;99.90;;;;;;5060612;28;20469;-74
2023/01/25 08:54:12;;;;;;;3.25;2.22;;;1.10;99.90;;;;;;5061824;28;20025;-76
2023/01/25 08:56:39;;;;;;;8.75;4.68;;;1.30;99.90;;;;;;5059185;28;20538;-73
2023/01/25 08:59:06;;;;;;;18.42;9.68;;;1.50;99.90;;;;;;5051882;28;20448;-73
2023/01/25 09:01:32;;;;;;;13.75;4.95;;;1.60;99.90;;;;;;5030216;28;20030;-74
2023/01/25 09:03:58;;;;;;;3.33;2.03;;;1.50;99.90;;;;;;5055454;28;20427;-74
2023/01/25 09:06:24;;;;;;;16.02;8.98;;;1.40;99.90;;;;;;5059276;28;20029;-75
2023/01/25 09:08:50;;;;;;;22.02;13.05;;;1.40;99.90;;;;;;5040390;28;20039;-75
2023/01/25 09:11:18;;;;;;;54.63;21.45;;;1.30;99.90;;;;;;5055490;28;20029;-73
2023/01/25 09:13:44;;;;;;;10.70;6.25;;;1.10;99.90;;;;;;5061006;28;20012;-73
2023/01/25 09:16:13;;;;;;;31.80;14.68;;;1.10;99.90;;;;;;5060664;28;20063;-73
2023/01/25 09:18:42;;;;;;;27.85;15.45;;;1.10;99.90;;;;;;5057939;28;20032;-74
2023/01/25 09:21:10;;;;;;;16.08;7.15;;;1.10;99.90;;;;;;5053080;28;20097;-74
2023/01/25 09:23:36;;;;;;;34.20;15.15;;;1.00;99.90;;;;;;5054624;28;20029;-74
2023/01/25 09:26:03;;;;;;;39.58;15.20;;;1.10;99.90;;;;;;5053762;28;20036;-73
2023/01/25 09:28:30;;;;;;;26.02;9.82;;;1.10;99.90;;;;;;5051753;28;20036;-74
2023/01/25 09:30:57;;;;;;;7.25;5.43;;;1.00;99.90;;;;;;5053042;28;20029;-73
2023/01/25 09:33:36;;;;;;;49.40;23.20;;;1.20;99.90;;;;;;5038084;28;20381;-74
2023/01/25 09:36:02;;;;;;;49.65;22.23;;;1.20;99.90;;;;;;5052740;28;20051;-74
2023/01/25 09:38:28;;;;;;;70.60;27.00;;;1.40;99.90;;;;;;5054168;28;20068;-74
2023/01/25 09:41:06;;;;;;;31.25;14.73;;;1.10;99.90;;;;;;5052546;28;20454;-74
2023/01/25 09:43:57;;;;;;;12.73;8.00;;;1.10;99.90;;;;;;5053816;28;20098;-74
2023/01/25 09:46:47;;;;;;;14.32;8.77;;;1.10;99.90;;;;;;5053829;28;20032;-73
2023/01/25 09:49:53;;;;;;;21.25;11.60;;;1.10;99.90;;;;;;5051770;28;20484;-73
2023/01/25 09:52:42;;;;;;;23.92;10.98;;;1.10;99.90;;;;;;5050094;28;20033;-74
2023/01/25 09:55:17;;;;;;;34.10;13.18;;;1.10;99.90;;;;;;5052024;28;20043;-74
2023/01/25 09:57:46;;;;;;;18.00;12.48;;;1.20;99.90;;;;;;5057169;28;20465;-74
2023/01/25 10:00:19;;;;;;;28.00;14.65;;;1.10;99.90;;;;;;5056621;28;20032;-74
2023/01/25 10:02:57;;;;;;;60.80;20.52;;;1.30;99.90;;;;;;5052751;28;20037;-74
2023/01/25 10:05:27;;;;;;;39.88;18.02;;;1.20;99.90;;;;;;5050835;28;20031;-74
2023/01/25 10:08:07;;;;;;;22.42;13.32;;;1.10;99.90;;;;;;5059783;28;20491;-74
2023/01/25 10:10:39;;;;;;;18.55;11.75;;;1.20;99.90;;;;;;5057752;28;20068;-74
2023/01/25 10:13:21;;;;;;;14.30;12.50;;;1.30;99.90;;;;;;5050439;28;20022;-73
2023/01/25 10:15:51;;;;;;;56.70;26.65;;;1.10;99.90;;;;;;5053263;28;20020;-75
2023/01/25 10:18:28;;;;;;;35.88;13.70;;;1.00;99.90;;;;;;5057443;28;20071;-73
2023/01/25 10:21:07;;;;;;;30.48;16.20;;;1.00;99.90;;;;;;5060406;28;20029;-73
2023/01/25 10:24:01;;;;;;;39.97;18.50;;;0.80;99.90;;;;;;5040607;28;20037;-73
2023/01/25 10:26:31;;;;;;;38.72;17.33;;;1.00;99.90;;;;;;5040480;28;20021;-73
2023/01/25 10:29:20;;;;;;;36.85;16.27;;;1.00;99.90;;;;;;5053314;28;20366;-73
2023/01/25 10:31:55;;;;;;;20.90;13.25;;;0.90;99.90;;;;;;5051373;28;20032;-73
2023/01/25 10:34:38;;;;;;;19.63;11.45;;;0.90;99.90;;;;;;5052398;28;20021;-74
2023/01/25 10:37:20;;;;;;;17.67;10.98;;;1.00;99.90;;;;;;5051717;28;20036;-74
2023/01/25 10:40:00;;;;;;;21.98;13.82;;;1.00;99.90;;;;;;5039581;28;20033;-73
2023/01/25 10:42:28;;;;;;;7.28;4.43;;;1.00;99.90;;;;;;5051643;28;20043;-74
2023/01/25 10:44:54;;;;;;;39.78;13.70;;;1.30;99.90;;;;;;5053132;28;20151;-74
2023/01/25 10:47:27;;;;;;;14.77;8.52;;;1.20;99.90;;;;;;5053084;28;20107;-74
2023/01/25 10:49:56;;;;;;;59.15;22.52;;;1.20;99.90;;;;;;5051603;28;20072;-74
2023/01/25 10:52:23;;;;;;;15.90;7.60;;;1.10;99.90;;;;;;5051500;28;20041;-73
2023/01/25 10:55:22;;;;;;;31.88;16.30;;;1.00;99.90;;;;;;5052312;28;20040;-71
2023/01/25 10:57:56;;;;;;;24.67;12.85;;;1.00;99.90;;;;;;5034663;28;20033;-71
2023/01/25 11:00:38;;;;;;;9.40;2.45;;;1.00;99.90;;;;;;5040053;28;20604;-71
2023/01/25 11:03:04;;;;;;;19.13;9.82;;;1.40;99.90;;;;;;5051310;28;20493;-72
2023/01/25 11:05:32;;;;;;;67.28;20.92;;;1.40;99.90;;;;;;5052805;28;20051;-72
2023/01/25 11:08:14;;;;;;;30.17;15.82;;;1.40;99.90;;;;;;5052280;28;20033;-72
2023/01/25 11:10:44;;;;;;;43.08;21.65;;;1.30;99.90;;;;;;5052316;28;20032;-73
2023/01/25 11:13:16;;;;;;;16.65;10.50;;;1.20;99.90;;;;;;5052569;28;20021;-74
2023/01/25 11:15:43;;;;;;;20.25;7.95;;;1.10;99.90;;;;;;5052426;28;20032;-73
2023/01/25 11:18:32;;;;;;;29.42;13.85;;;1.30;99.90;;;;;;5052268;28;20033;-73
2023/01/25 11:21:21;;;;;;;26.85;10.82;;;1.20;99.90;;;;;;5050819;28;20037;-73
2023/01/25 11:23:58;;;;;;;24.60;15.43;;;1.30;99.90;;;;;;5050443;28;20040;-73
2023/01/25 11:26:24;;;;;;;35.78;20.08;;;1.30;99.90;;;;;;5034136;28;20116;-73
2023/01/25 11:29:10;;;;;;;27.30;5.72;;;1.30;99.90;;;;;;5051949;28;20123;-73
2023/01/25 11:31:36;;;;;;;48.80;18.20;;;1.20;99.90;;;;;;5052479;28;20041;-73
2023/01/25 11:34:07;;;;;;;38.75;20.30;;;1.30;99.90;;;;;;5052223;28;20025;-72
2023/01/25 11:36:53;;;;;;;25.30;13.07;;;1.10;99.90;;;;;;5047822;28;20043;-73
2023/01/25 11:39:43;;;;;;;21.58;6.68;;;1.00;99.90;;;;;;5043584;28;20028;-72
2023/01/25 11:42:21;;;;;;;40.28;11.80;;;1.10;99.90;;;;;;5053531;28;20103;-73
2023/01/25 11:45:20;;;;;;;29.63;18.42;;;1.00;99.90;;;;;;5057177;28;20070;-72
2023/01/25 11:47:58;;;;;;;21.83;9.82;;;1.20;99.90;;;;;;5048627;28;20029;-73
2023/01/25 11:50:45;;;;;;;30.15;17.10;;;1.20;99.90;;;;;;5057535;28;20027;-73
2023/01/25 11:53:49;;;;;;;5.53;3.92;;;1.20;99.90;;;;;;5054686;28;20392;-73
2023/01/25 11:56:32;;;;;;;8.38;7.68;;;1.40;99.90;;;;;;5053413;28;20032;-72
2023/01/25 11:59:02;;;;;;;4.25;3.45;;;1.40;99.90;;;;;;5054639;28;20020;-73
2023/01/25 12:01:51;;;;;;;17.60;6.88;;;1.60;99.90;;;;;;5052244;28;20025;-73
2023/01/25 12:04:32;;;;;;;12.30;9.38;;;1.60;99.90;;;;;;5062818;28;20037;-73
2023/01/25 12:07:02;;;;;;;0.75;0.75;;;1.60;99.90;;;;;;5049848;28;20028;-73
2023/01/25 12:09:39;;;;;;;29.13;13.93;;;1.60;99.90;;;;;;5046093;28;20033;-73
2023/01/25 12:12:25;;;;;;;11.93;4.82;;;1.80;99.90;;;;;;5044206;28;20033;-73
2023/01/25 12:15:14;;;;;;;36.58;14.45;;;1.80;99.90;;;;;;5047316;28;20385;-73
2023/01/25 12:17:59;;;;;;;11.15;4.68;;;2.10;99.90;;;;;;5039867;28;20032;-73
2023/01/25 12:20:38;;;;;;;12.35;7.35;;;1.70;99.90;;;;;;5055511;28;20481;-72
2023/01/25 12:23:28;;;;;;;36.60;15.57;;;1.60;99.90;;;;;;5054221;28;20473;-73
2023/01/25 12:26:11;;;;;;;52.33;14.68;;;1.50;99.90;;;;;;5055128;28;20055;-73
2023/01/25 12:29:00;;;;;;;27.13;9.35;;;1.40;99.90;;;;;;5055537;28;20033;-72
2023/01/25 12:31:42;;;;;;;21.73;10.07;;;1.30;99.90;;;;;;5043907;28;20040;-72
2023/01/25 12:34:11;;;;;;;;;;;1.60;99.90;;;;;;5055807;28;20460;-72
2023/01/25 12:36:43;;;;;;;9.40;5.90;;;1.60;99.90;;;;;;5054850;28;19920;-72
2023/01/25 12:39:26;;;;;;;7.80;1.75;;;1.40;99.90;;;;;;5037302;28;20068;-72
2023/01/25 12:42:06;;;;;;;4.07;3.78;;;1.70;99.90;;;;;;5054187;28;20450;-71
2023/01/25 12:44:45;;;;;;;1.00;0.98;;;1.60;99.90;;;;;;5054993;28;20130;-72
2023/01/25 12:47:24;;;;;;;52.95;22.77;;;2.10;99.90;;;;;;5053802;28;20024;-72
2023/01/25 12:50:13;;;;;;;21.13;10.07;;;1.80;99.90;;;;;;5053582;28;20131;-72
2023/01/25 12:52:52;;;;;;;5.35;2.10;;;1.80;99.90;;;;;;5055098;28;20118;-73
2023/01/25 12:55:18;;;;;;;16.10;9.82;;;1.60;99.90;;;;;;5053921;28;20025;-72
2023/01/25 12:58:17;;;;;;;6.22;5.65;;;1.70;99.90;;;;;;5053812;28;20036;-72
2023/01/25 13:00:48;;;;;;;16.38;5.68;;;1.70;99.90;;;;;;5055212;28;20078;-72
2023/01/25 13:03:28;;;;;;;6.63;6.00;;;2.00;99.90;;;;;;5054779;28;20041;-72
2023/01/25 13:06:08;;;;;;;0.30;0.30;;;2.00;99.90;;;;;;5054739;28;20033;-73
2023/01/25 13:08:37;;;;;;;20.50;12.95;;;2.40;99.90;;;;;;5054700;28;20037;-72
2023/01/25 13:11:30;;;;;;;25.55;13.68;;;2.10;99.90;;;;;;5053694;28;20104;-72
2023/01/25 13:14:14;;;;;;;9.15;5.47;;;1.70;99.90;;;;;;5038187;28;20524;-73
2023/01/25 13:16:48;;;;;;;12.48;6.25;;;1.60;99.90;;;;;;5051342;28;20112;-73